sensor_id;sensor_type;location;lat;lon;timestamp;P1;durP1;ratioP1;P2;durP2;ratioP2
32242;SDS011;18731;42.830;24.390;2023-05-07T03:00:44;11.27;;;5.97;;
32242;SDS011;18731;42.830;24.390;2023-05-07T03:03:10;12.00;;;5.88;;
32242;SDS011;18731;42.830;24.390;2023-05-07T03:05:37;14.77;;;5.85;;
32242;SDS011;18731;42.830;24.390;2023-05-07T03:08:03;8.32;;;5.70;;
32242;SDS011;18731;42.830;24.390;2023-05-07T03:10:29;8.95;;;5.50;;
32242;SDS011;18731;42.830;24.390;2023-05-07T03:12:55;10.80;;;6.07;;
32242;SDS011;18731;42.830;24.390;2023-05-07T03:15:21;15.85;;;5.82;;
32242;SDS011;18731;42.830;24.390;2023-05-07T03:17:47;10.25;;;6.05;;
32242;SDS011;18731;42.830;24.390;2023-05-07T03:20:13;10.77;;;5.78;;
32242;SDS011;18731;42.830;24.390;2023-05-07T03:22:39;10.25;;;5.90;;
32242;SDS011;18731;42.830;24.390;2023-05-07T03:25:05;12.98;;;5.68;;
32242;SDS011;18731;42.830;24.390;2023-05-07T03:27:32;8.80;;;5.82;;
32242;SDS011;18731;42.830;24.390;2023-05-07T03:29:58;17.98;;;7.40;;
32242;SDS011;18731;42.830;24.390;2023-05-07T03:32:23;14.27;;;9.23;;
32242;SDS011;18731;42.830;24.390;2023-05-07T03:34:49;16.38;;;9.27;;
32242;SDS011;18731;42.830;24.390;2023-05-07T03:37:15;18.05;;;9.32;;
32242;SDS011;18731;42.830;24.390;2023-05-07T03:39:41;17.33;;;8.23;;
32242;SDS011;18731;42.830;24.390;2023-05-07T03:42:06;9.60;;;7.00;;
32242;SDS011;18731;42.830;24.390;2023-05-07T03:44:32;12.25;;;7.22;;
32242;SDS011;18731;42.830;24.390;2023-05-07T03:46:58;16.52;;;5.80;;
32242;SDS011;18731;42.830;24.390;2023-05-07T03:49:23;17.83;;;8.82;;
32242;SDS011;18731;42.830;24.390;2023-05-07T03:51:49;27.17;;;12.60;;
32242;SDS011;18731;42.830;24.390;2023-05-07T03:54:14;29.98;;;15.70;;
32242;SDS011;18731;42.830;24.390;2023-05-07T03:56:40;18.50;;;9.15;;
32242;SDS011;18731;42.830;24.390;2023-05-07T03:59:06;20.75;;;8.05;;
32242;SDS011;18731;42.830;24.390;2023-05-07T04:01:32;13.63;;;8.02;;
32242;SDS011;18731;42.830;24.390;2023-05-07T04:03:57;11.95;;;6.90;;
32242;SDS011;18731;42.830;24.390;2023-05-07T04:06:23;8.88;;;6.95;;
32242;SDS011;18731;42.830;24.390;2023-05-07T04:08:49;10.65;;;6.25;;
32242;SDS011;18731;42.830;24.390;2023-05-07T04:11:15;29.60;;;14.05;;
32242;SDS011;18731;42.830;24.390;2023-05-07T04:13:40;16.25;;;7.70;;
32242;SDS011;18731;42.830;24.390;2023-05-07T04:16:06;12.40;;;6.97;;
32242;SDS011;18731;42.830;24.390;2023-05-07T04:18:31;12.40;;;7.28;;
32242;SDS011;18731;42.830;24.390;2023-05-07T04:20:57;10.95;;;6.85;;
32242;SDS011;18731;42.830;24.390;2023-05-07T04:23:23;13.50;;;7.68;;
32242;SDS011;18731;42.830;24.390;2023-05-07T04:25:48;12.13;;;6.63;;
32242;SDS011;18731;42.830;24.390;2023-05-07T04:28:15;12.20;;;5.38;;
32242;SDS011;18731;42.830;24.390;2023-05-07T04:30:40;12.15;;;5.75;;
32242;SDS011;18731;42.830;24.390;2023-05-07T04:33:06;9.63;;;5.22;;
32242;SDS011;18731;42.830;24.390;2023-05-07T04:35:32;8.85;;;5.47;;
32242;SDS011;18731;42.830;24.390;2023-05-07T04:37:57;12.57;;;5.40;;
32242;SDS011;18731;42.830;24.390;2023-05-07T04:40:23;9.60;;;5.43;;
32242;SDS011;18731;42.830;24.390;2023-05-07T04:42:49;7.95;;;4.82;;
32242;SDS011;18731;42.830;24.390;2023-05-07T04:45:14;98.88;;;45.55;;
32242;SDS011;18731;42.830;24.390;2023-05-07T04:47:40;52.33;;;26.65;;
32242;SDS011;18731;42.830;24.390;2023-05-07T04:50:06;11.32;;;7.05;;
32242;SDS011;18731;42.830;24.390;2023-05-07T04:52:33;6.07;;;4.60;;
32242;SDS011;18731;42.830;24.390;2023-05-07T04:54:59;6.38;;;4.50;;
32242;SDS011;18731;42.830;24.390;2023-05-07T04:57:25;5.85;;;4.43;;
32242;SDS011;18731;42.830;24.390;2023-05-07T04:59:51;7.50;;;4.60;;
32242;SDS011;18731;42.830;24.390;2023-05-07T05:02:18;7.80;;;4.78;;
32242;SDS011;18731;42.830;24.390;2023-05-07T05:04:43;7.85;;;4.40;;
32242;SDS011;18731;42.830;24.390;2023-05-07T05:07:09;5.80;;;4.97;;
32242;SDS011;18731;42.830;24.390;2023-05-07T05:09:35;8.35;;;5.00;;
32242;SDS011;18731;42.830;24.390;2023-05-07T05:12:00;9.15;;;4.85;;
32242;SDS011;18731;42.830;24.390;2023-05-07T05:14:26;6.85;;;4.13;;
32242;SDS011;18731;42.830;24.390;2023-05-07T05:16:51;7.18;;;4.65;;
32242;SDS011;18731;42.830;24.390;2023-05-07T05:19:17;6.90;;;4.38;;
32242;SDS011;18731;42.830;24.390;2023-05-07T05:21:43;8.77;;;4.47;;
32242;SDS011;18731;42.830;24.390;2023-05-07T05:24:08;8.00;;;3.55;;
32242;SDS011;18731;42.830;24.390;2023-05-07T05:26:34;6.63;;;3.88;;
32242;SDS011;18731;42.830;24.390;2023-05-07T05:28:59;6.95;;;3.70;;
32242;SDS011;18731;42.830;24.390;2023-05-07T05:31:25;10.10;;;5.70;;
32242;SDS011;18731;42.830;24.390;2023-05-07T05:33:50;8.95;;;4.20;;
32242;SDS011;18731;42.830;24.390;2023-05-07T05:36:16;13.77;;;3.83;;
32242;SDS011;18731;42.830;24.390;2023-05-07T05:38:42;6.35;;;3.65;;
32242;SDS011;18731;42.830;24.390;2023-05-07T05:41:07;14.75;;;7.03;;
32242;SDS011;18731;42.830;24.390;2023-05-07T05:43:33;7.88;;;5.18;;
32242;SDS011;18731;42.830;24.390;2023-05-07T05:45:58;14.05;;;5.20;;
32242;SDS011;18731;42.830;24.390;2023-05-07T05:48:25;7.32;;;4.20;;
32242;SDS011;18731;42.830;24.390;2023-05-07T05:50:51;10.02;;;6.15;;
32242;SDS011;18731;42.830;24.390;2023-05-07T05:53:16;7.82;;;5.53;;
32242;SDS011;18731;42.830;24.390;2023-05-07T05:55:42;8.15;;;4.63;;
32242;SDS011;18731;42.830;24.390;2023-05-07T05:58:08;8.52;;;4.75;;
32242;SDS011;18731;42.830;24.390;2023-05-07T06:00:34;8.32;;;4.32;;
32242;SDS011;18731;42.830;24.390;2023-05-07T06:03:00;4.97;;;4.22;;
32242;SDS011;18731;42.830;24.390;2023-05-07T06:05:26;7.15;;;5.05;;
32242;SDS011;18731;42.830;24.390;2023-05-07T06:07:51;5.13;;;3.72;;
32242;SDS011;18731;42.830;24.390;2023-05-07T06:10:17;4.05;;;3.45;;
32242;SDS011;18731;42.830;24.390;2023-05-07T06:12:43;7.65;;;3.30;;
32242;SDS011;18731;42.830;24.390;2023-05-07T06:15:09;9.50;;;3.53;;
32242;SDS011;18731;42.830;24.390;2023-05-07T06:17:35;5.45;;;3.17;;
32242;SDS011;18731;42.830;24.390;2023-05-07T06:20:00;5.75;;;3.30;;
32242;SDS011;18731;42.830;24.390;2023-05-07T06:22:26;5.35;;;2.97;;
32242;SDS011;18731;42.830;24.390;2023-05-07T06:24:52;8.27;;;2.95;;
32242;SDS011;18731;42.830;24.390;2023-05-07T06:27:17;4.35;;;2.60;;
32242;SDS011;18731;42.830;24.390;2023-05-07T06:29:43;7.55;;;2.92;;
32242;SDS011;18731;42.830;24.390;2023-05-07T06:32:09;6.28;;;3.17;;
32242;SDS011;18731;42.830;24.390;2023-05-07T06:34:36;4.05;;;2.80;;
32242;SDS011;18731;42.830;24.390;2023-05-07T06:37:03;10.98;;;2.78;;
32242;SDS011;18731;42.830;24.390;2023-05-07T06:39:28;5.80;;;2.92;;
32242;SDS011;18731;42.830;24.390;2023-05-07T06:41:54;5.38;;;2.92;;
32242;SDS011;18731;42.830;24.390;2023-05-07T06:44:19;6.10;;;2.60;;
32242;SDS011;18731;42.830;24.390;2023-05-07T06:46:45;8.20;;;2.85;;
32242;SDS011;18731;42.830;24.390;2023-05-07T06:49:12;13.45;;;3.53;;
32242;SDS011;18731;42.830;24.390;2023-05-07T06:51:38;4.38;;;2.90;;
32242;SDS011;18731;42.830;24.390;2023-05-07T06:54:04;3.95;;;2.67;;
32242;SDS011;18731;42.830;24.390;2023-05-07T06:56:30;7.38;;;2.75;;
32242;SDS011;18731;42.830;24.390;2023-05-07T06:58:56;7.97;;;2.95;;
32242;SDS011;18731;42.830;24.390;2023-05-07T07:01:21;3.47;;;2.50;;
32242;SDS011;18731;42.830;24.390;2023-05-07T07:03:47;5.20;;;2.38;;
32242;SDS011;18731;42.830;24.390;2023-05-07T07:06:13;9.30;;;3.00;;
32242;SDS011;18731;42.830;24.390;2023-05-07T07:08:38;8.65;;;3.10;;
32242;SDS011;18731;42.830;24.390;2023-05-07T07:11:04;5.45;;;3.15;;
32242;SDS011;18731;42.830;24.390;2023-05-07T07:13:30;6.28;;;2.90;;
32242;SDS011;18731;42.830;24.390;2023-05-07T07:15:56;7.30;;;2.72;;
32242;SDS011;18731;42.830;24.390;2023-05-07T07:18:22;4.95;;;2.90;;
32242;SDS011;18731;42.830;24.390;2023-05-07T07:20:47;9.27;;;3.40;;
32242;SDS011;18731;42.830;24.390;2023-05-07T07:23:13;6.90;;;2.85;;
32242;SDS011;18731;42.830;24.390;2023-05-07T07:25:39;3.83;;;2.90;;
32242;SDS011;18731;42.830;24.390;2023-05-07T07:28:05;5.05;;;2.70;;
32242;SDS011;18731;42.830;24.390;2023-05-07T07:30:31;11.38;;;2.67;;
32242;SDS011;18731;42.830;24.390;2023-05-07T07:32:57;8.65;;;2.47;;
32242;SDS011;18731;42.830;24.390;2023-05-07T07:35:28;5.68;;;2.65;;
32242;SDS011;18731;42.830;24.390;2023-05-07T07:37:56;3.35;;;2.08;;
32242;SDS011;18731;42.830;24.390;2023-05-07T07:40:22;6.38;;;2.40;;
32242;SDS011;18731;42.830;24.390;2023-05-07T07:42:48;10.10;;;2.40;;
32242;SDS011;18731;42.830;24.390;2023-05-07T07:45:14;3.33;;;2.03;;
32242;SDS011;18731;42.830;24.390;2023-05-07T07:47:39;9.68;;;2.60;;
32242;SDS011;18731;42.830;24.390;2023-05-07T07:50:06;4.03;;;2.15;;
32242;SDS011;18731;42.830;24.390;2023-05-07T07:52:32;12.45;;;2.97;;
32242;SDS011;18731;42.830;24.390;2023-05-07T07:54:58;7.50;;;2.20;;
32242;SDS011;18731;42.830;24.390;2023-05-07T07:57:23;13.43;;;2.70;;
32242;SDS011;18731;42.830;24.390;2023-05-07T07:59:49;22.38;;;2.78;;
32242;SDS011;18731;42.830;24.390;2023-05-07T08:02:15;5.28;;;2.40;;
32242;SDS011;18731;42.830;24.390;2023-05-07T08:04:41;5.90;;;2.03;;
32242;SDS011;18731;42.830;24.390;2023-05-07T08:07:11;2.50;;;2.10;;
32242;SDS011;18731;42.830;24.390;2023-05-07T08:09:38;5.95;;;2.38;;
32242;SDS011;18731;42.830;24.390;2023-05-07T08:12:04;6.38;;;2.15;;
32242;SDS011;18731;42.830;24.390;2023-05-07T08:14:30;3.85;;;2.40;;
32242;SDS011;18731;42.830;24.390;2023-05-07T08:16:56;9.25;;;2.35;;
32242;SDS011;18731;42.830;24.390;2023-05-07T08:19:22;11.32;;;2.17;;
32242;SDS011;18731;42.830;24.390;2023-05-07T08:21:48;10.18;;;2.60;;
32242;SDS011;18731;42.830;24.390;2023-05-07T08:24:14;4.13;;;2.10;;
32242;SDS011;18731;42.830;24.390;2023-05-07T08:26:40;6.78;;;2.67;;
32242;SDS011;18731;42.830;24.390;2023-05-07T08:29:06;4.25;;;2.45;;
32242;SDS011;18731;42.830;24.390;2023-05-07T08:31:32;6.85;;;1.98;;
32242;SDS011;18731;42.830;24.390;2023-05-07T08:33:58;4.20;;;2.30;;
32242;SDS011;18731;42.830;24.390;2023-05-07T08:36:25;3.58;;;2.13;;
32242;SDS011;18731;42.830;24.390;2023-05-07T08:38:51;3.47;;;2.08;;
32242;SDS011;18731;42.830;24.390;2023-05-07T08:41:17;4.07;;;2.20;;
32242;SDS011;18731;42.830;24.390;2023-05-07T08:43:45;6.53;;;2.10;;
32242;SDS011;18731;42.830;24.390;2023-05-07T08:46:13;6.45;;;2.03;;
32242;SDS011;18731;42.830;24.390;2023-05-07T08:48:43;3.15;;;2.20;;
32242;SDS011;18731;42.830;24.390;2023-05-07T08:51:12;7.35;;;2.47;;
32242;SDS011;18731;42.830;24.390;2023-05-07T08:53:40;4.40;;;2.53;;
32242;SDS011;18731;42.830;24.390;2023-05-07T08:56:07;6.07;;;2.67;;
32242;SDS011;18731;42.830;24.390;2023-05-07T08:58:34;9.73;;;2.92;;
32242;SDS011;18731;42.830;24.390;2023-05-07T09:01:03;5.55;;;2.55;;
32242;SDS011;18731;42.830;24.390;2023-05-07T09:03:34;4.97;;;2.47;;
32242;SDS011;18731;42.830;24.390;2023-05-07T09:06:00;4.18;;;2.45;;
32242;SDS011;18731;42.830;24.390;2023-05-07T09:08:26;7.57;;;2.50;;
32242;SDS011;18731;42.830;24.390;2023-05-07T09:10:52;3.58;;;2.30;;
32242;SDS011;18731;42.830;24.390;2023-05-07T09:13:19;4.75;;;2.20;;
32242;SDS011;18731;42.830;24.390;2023-05-07T09:15:45;5.00;;;2.38;;
32242;SDS011;18731;42.830;24.390;2023-05-07T09:18:11;8.07;;;2.60;;
32242;SDS011;18731;42.830;24.390;2023-05-07T09:20:37;5.70;;;2.30;;
32242;SDS011;18731;42.830;24.390;2023-05-07T09:23:04;2.92;;;2.00;;
32242;SDS011;18731;42.830;24.390;2023-05-07T09:25:33;5.70;;;2.20;;
32242;SDS011;18731;42.830;24.390;2023-05-07T09:28:00;8.73;;;2.67;;
32242;SDS011;18731;42.830;24.390;2023-05-07T09:30:32;10.43;;;2.90;;
32242;SDS011;18731;42.830;24.390;2023-05-07T09:33:00;7.20;;;2.70;;
32242;SDS011;18731;42.830;24.390;2023-05-07T09:35:26;4.55;;;2.28;;
32242;SDS011;18731;42.830;24.390;2023-05-07T09:37:53;8.13;;;2.30;;
32242;SDS011;18731;42.830;24.390;2023-05-07T09:40:20;5.82;;;2.33;;
32242;SDS011;18731;42.830;24.390;2023-05-07T09:42:50;3.53;;;2.25;;
32242;SDS011;18731;42.830;24.390;2023-05-07T09:45:20;4.75;;;2.00;;
32242;SDS011;18731;42.830;24.390;2023-05-07T09:47:56;2.63;;;1.98;;
32242;SDS011;18731;42.830;24.390;2023-05-07T09:50:26;5.55;;;2.20;;
32242;SDS011;18731;42.830;24.390;2023-05-07T09:52:56;8.63;;;2.10;;
32242;SDS011;18731;42.830;24.390;2023-05-07T09:55:22;4.07;;;2.05;;
32242;SDS011;18731;42.830;24.390;2023-05-07T09:57:52;4.15;;;2.33;;
32242;SDS011;18731;42.830;24.390;2023-05-07T10:00:19;2.47;;;1.70;;
32242;SDS011;18731;42.830;24.390;2023-05-07T10:02:49;8.40;;;2.30;;
32242;SDS011;18731;42.830;24.390;2023-05-07T10:05:20;6.72;;;2.20;;
32242;SDS011;18731;42.830;24.390;2023-05-07T10:07:47;4.88;;;2.17;;
32242;SDS011;18731;42.830;24.390;2023-05-07T10:10:14;5.13;;;2.08;;
32242;SDS011;18731;42.830;24.390;2023-05-07T10:12:40;4.03;;;2.10;;
32242;SDS011;18731;42.830;24.390;2023-05-07T10:15:10;5.97;;;1.90;;
32242;SDS011;18731;42.830;24.390;2023-05-07T10:17:37;3.13;;;2.53;;
32242;SDS011;18731;42.830;24.390;2023-05-07T10:20:04;5.30;;;2.20;;
32242;SDS011;18731;42.830;24.390;2023-05-07T10:22:32;7.43;;;2.08;;
32242;SDS011;18731;42.830;24.390;2023-05-07T10:25:03;6.57;;;2.38;;
32242;SDS011;18731;42.830;24.390;2023-05-07T10:27:36;7.10;;;2.20;;
32242;SDS011;18731;42.830;24.390;2023-05-07T10:32:47;3.83;;;2.08;;
32242;SDS011;18731;42.830;24.390;2023-05-07T10:35:24;10.05;;;2.33;;
32242;SDS011;18731;42.830;24.390;2023-05-07T10:37:57;8.93;;;2.65;;
32242;SDS011;18731;42.830;24.390;2023-05-07T10:40:23;2.83;;;2.00;;
32242;SDS011;18731;42.830;24.390;2023-05-07T10:42:59;6.20;;;2.20;;
32242;SDS011;18731;42.830;24.390;2023-05-07T10:45:27;10.38;;;2.47;;
32242;SDS011;18731;42.830;24.390;2023-05-07T10:48:06;3.22;;;2.10;;
32242;SDS011;18731;42.830;24.390;2023-05-07T10:50:34;3.15;;;2.10;;
32242;SDS011;18731;42.830;24.390;2023-05-07T10:55:46;3.93;;;2.37;;
32242;SDS011;18731;42.830;24.390;2023-05-07T11:00:47;2.78;;;2.03;;
32242;SDS011;18731;42.830;24.390;2023-05-07T11:03:14;6.13;;;2.10;;
32242;SDS011;18731;42.830;24.390;2023-05-07T11:05:46;5.70;;;2.20;;
32242;SDS011;18731;42.830;24.390;2023-05-07T11:09:08;6.97;;;2.45;;
32242;SDS011;18731;42.830;24.390;2023-05-07T11:11:43;5.40;;;2.10;;
32242;SDS011;18731;42.830;24.390;2023-05-07T11:14:36;3.45;;;2.33;;
32242;SDS011;18731;42.830;24.390;2023-05-07T11:17:11;6.93;;;2.28;;
32242;SDS011;18731;42.830;24.390;2023-05-07T11:19:52;6.18;;;2.40;;
32242;SDS011;18731;42.830;24.390;2023-05-07T11:25:00;2.90;;;2.35;;
32242;SDS011;18731;42.830;24.390;2023-05-07T11:27:26;4.75;;;2.30;;
32242;SDS011;18731;42.830;24.390;2023-05-07T11:29:52;4.78;;;2.38;;
32242;SDS011;18731;42.830;24.390;2023-05-07T11:32:28;5.82;;;2.42;;
32242;SDS011;18731;42.830;24.390;2023-05-07T11:34:55;7.93;;;2.45;;
32242;SDS011;18731;42.830;24.390;2023-05-07T11:37:22;6.45;;;2.35;;
32242;SDS011;18731;42.830;24.390;2023-05-07T11:39:49;5.18;;;2.30;;
32242;SDS011;18731;42.830;24.390;2023-05-07T11:42:27;6.65;;;2.75;;
32242;SDS011;18731;42.830;24.390;2023-05-07T11:47:20;9.20;;;2.30;;
32242;SDS011;18731;42.830;24.390;2023-05-07T11:49:47;3.80;;;2.20;;
32242;SDS011;18731;42.830;24.390;2023-05-07T11:52:13;5.95;;;2.38;;
32242;SDS011;18731;42.830;24.390;2023-05-07T11:54:40;3.67;;;2.03;;
32242;SDS011;18731;42.830;24.390;2023-05-07T11:57:05;4.50;;;2.50;;
32242;SDS011;18731;42.830;24.390;2023-05-07T11:59:38;8.80;;;2.40;;
32242;SDS011;18731;42.830;24.390;2023-05-07T12:02:05;3.15;;;2.10;;
32242;SDS011;18731;42.830;24.390;2023-05-07T12:04:32;6.18;;;2.50;;
32242;SDS011;18731;42.830;24.390;2023-05-07T12:06:58;4.07;;;2.55;;
32242;SDS011;18731;42.830;24.390;2023-05-07T12:09:23;9.48;;;2.38;;
32242;SDS011;18731;42.830;24.390;2023-05-07T12:11:49;3.40;;;1.98;;
32242;SDS011;18731;42.830;24.390;2023-05-07T12:14:17;3.75;;;2.30;;
32242;SDS011;18731;42.830;24.390;2023-05-07T12:16:42;7.07;;;2.40;;
32242;SDS011;18731;42.830;24.390;2023-05-07T12:19:10;3.65;;;2.60;;
32242;SDS011;18731;42.830;24.390;2023-05-07T12:21:40;6.63;;;2.42;;
32242;SDS011;18731;42.830;24.390;2023-05-07T12:24:06;5.22;;;2.42;;
32242;SDS011;18731;42.830;24.390;2023-05-07T12:26:36;2.60;;;1.98;;
32242;SDS011;18731;42.830;24.390;2023-05-07T12:29:04;6.13;;;2.13;;
32242;SDS011;18731;42.830;24.390;2023-05-07T12:31:29;5.35;;;2.50;;
32242;SDS011;18731;42.830;24.390;2023-05-07T12:33:55;4.78;;;2.15;;
32242;SDS011;18731;42.830;24.390;2023-05-07T12:36:21;6.80;;;2.38;;
32242;SDS011;18731;42.830;24.390;2023-05-07T12:38:48;4.82;;;2.40;;
32242;SDS011;18731;42.830;24.390;2023-05-07T12:41:15;3.13;;;2.15;;
32242;SDS011;18731;42.830;24.390;2023-05-07T12:43:44;7.60;;;2.08;;
32242;SDS011;18731;42.830;24.390;2023-05-07T12:46:10;3.38;;;2.00;;
32242;SDS011;18731;42.830;24.390;2023-05-07T12:48:43;6.95;;;2.25;;
32242;SDS011;18731;42.830;24.390;2023-05-07T12:51:11;9.30;;;2.17;;
32242;SDS011;18731;42.830;24.390;2023-05-07T12:53:42;5.95;;;2.33;;
32242;SDS011;18731;42.830;24.390;2023-05-07T12:56:08;7.32;;;2.65;;
32242;SDS011;18731;42.830;24.390;2023-05-07T12:58:35;4.40;;;2.20;;
32242;SDS011;18731;42.830;24.390;2023-05-07T13:01:03;4.10;;;2.50;;
32242;SDS011;18731;42.830;24.390;2023-05-07T13:03:31;6.32;;;2.45;;
32242;SDS011;18731;42.830;24.390;2023-05-07T13:06:02;6.57;;;2.30;;
32242;SDS011;18731;42.830;24.390;2023-05-07T13:08:36;8.27;;;2.15;;
32242;SDS011;18731;42.830;24.390;2023-05-07T13:11:06;4.20;;;1.90;;
32242;SDS011;18731;42.830;24.390;2023-05-07T13:13:33;2.95;;;2.30;;
32242;SDS011;18731;42.830;24.390;2023-05-07T13:16:04;4.10;;;2.05;;
32242;SDS011;18731;42.830;24.390;2023-05-07T13:18:31;6.97;;;2.22;;
32242;SDS011;18731;42.830;24.390;2023-05-07T13:20:58;4.57;;;1.90;;
32242;SDS011;18731;42.830;24.390;2023-05-07T13:23:25;3.17;;;2.00;;
32242;SDS011;18731;42.830;24.390;2023-05-07T13:25:51;4.75;;;2.15;;
32242;SDS011;18731;42.830;24.390;2023-05-07T13:28:20;5.60;;;2.20;;
32242;SDS011;18731;42.830;24.390;2023-05-07T13:30:47;3.80;;;2.22;;
32242;SDS011;18731;42.830;24.390;2023-05-07T13:33:13;2.63;;;2.17;;
32242;SDS011;18731;42.830;24.390;2023-05-07T13:35:39;7.10;;;2.60;;
32242;SDS011;18731;42.830;24.390;2023-05-07T13:38:04;7.60;;;2.42;;
32242;SDS011;18731;42.830;24.390;2023-05-07T13:40:30;4.38;;;2.10;;
32242;SDS011;18731;42.830;24.390;2023-05-07T13:42:59;3.78;;;2.10;;
32242;SDS011;18731;42.830;24.390;2023-05-07T13:45:28;10.05;;;2.72;;
32242;SDS011;18731;42.830;24.390;2023-05-07T13:47:54;8.18;;;2.30;;
32242;SDS011;18731;42.830;24.390;2023-05-07T13:50:21;6.07;;;2.10;;
32242;SDS011;18731;42.830;24.390;2023-05-07T13:52:46;3.38;;;2.28;;
32242;SDS011;18731;42.830;24.390;2023-05-07T13:55:16;6.30;;;2.30;;
32242;SDS011;18731;42.830;24.390;2023-05-07T13:57:43;2.53;;;2.08;;
32242;SDS011;18731;42.830;24.390;2023-05-07T14:00:09;6.35;;;2.05;;
32242;SDS011;18731;42.830;24.390;2023-05-07T14:02:35;7.68;;;2.17;;
32242;SDS011;18731;42.830;24.390;2023-05-07T14:05:00;7.15;;;2.45;;
32242;SDS011;18731;42.830;24.390;2023-05-07T14:07:26;4.20;;;2.22;;
32242;SDS011;18731;42.830;24.390;2023-05-07T14:09:52;5.32;;;2.10;;
32242;SDS011;18731;42.830;24.390;2023-05-07T14:12:17;2.75;;;1.92;;
32242;SDS011;18731;42.830;24.390;2023-05-07T14:14:43;8.65;;;2.42;;
32242;SDS011;18731;42.830;24.390;2023-05-07T14:17:10;4.47;;;2.28;;
32242;SDS011;18731;42.830;24.390;2023-05-07T14:19:36;4.47;;;2.70;;
32242;SDS011;18731;42.830;24.390;2023-05-07T14:22:01;3.70;;;2.33;;
32242;SDS011;18731;42.830;24.390;2023-05-07T14:24:27;3.63;;;2.03;;
32242;SDS011;18731;42.830;24.390;2023-05-07T14:26:53;6.85;;;2.38;;
32242;SDS011;18731;42.830;24.390;2023-05-07T14:29:18;5.80;;;2.13;;
32242;SDS011;18731;42.830;24.390;2023-05-07T14:31:44;16.40;;;2.70;;
32242;SDS011;18731;42.830;24.390;2023-05-07T14:34:11;5.85;;;2.20;;
32242;SDS011;18731;42.830;24.390;2023-05-07T14:36:36;4.68;;;2.20;;
32242;SDS011;18731;42.830;24.390;2023-05-07T14:39:03;6.25;;;2.30;;
32242;SDS011;18731;42.830;24.390;2023-05-07T14:41:29;5.15;;;2.55;;
32242;SDS011;18731;42.830;24.390;2023-05-07T14:43:55;5.30;;;2.28;;
32242;SDS011;18731;42.830;24.390;2023-05-07T14:46:20;6.80;;;2.25;;
32242;SDS011;18731;42.830;24.390;2023-05-07T14:48:46;3.30;;;2.10;;
32242;SDS011;18731;42.830;24.390;2023-05-07T14:51:12;7.40;;;2.20;;
32242;SDS011;18731;42.830;24.390;2023-05-07T14:53:39;7.30;;;1.98;;
32242;SDS011;18731;42.830;24.390;2023-05-07T14:56:06;5.95;;;2.35;;
32242;SDS011;18731;42.830;24.390;2023-05-07T14:58:31;6.00;;;2.35;;
32242;SDS011;18731;42.830;24.390;2023-05-07T15:00:57;8.50;;;2.08;;
32242;SDS011;18731;42.830;24.390;2023-05-07T15:03:24;3.80;;;2.20;;
32242;SDS011;18731;42.830;24.390;2023-05-07T15:05:50;7.38;;;2.10;;
32242;SDS011;18731;42.830;24.390;2023-05-07T15:08:16;3.97;;;2.25;;
32242;SDS011;18731;42.830;24.390;2023-05-07T15:10:42;3.92;;;2.97;;
32242;SDS011;18731;42.830;24.390;2023-05-07T15:13:09;2.85;;;1.98;;
32242;SDS011;18731;42.830;24.390;2023-05-07T15:15:36;5.28;;;2.40;;
32242;SDS011;18731;42.830;24.390;2023-05-07T15:18:02;3.78;;;2.00;;
32242;SDS011;18731;42.830;24.390;2023-05-07T15:20:28;2.60;;;2.05;;
32242;SDS011;18731;42.830;24.390;2023-05-07T15:22:53;4.00;;;1.83;;
32242;SDS011;18731;42.830;24.390;2023-05-07T15:25:20;5.68;;;2.10;;
32242;SDS011;18731;42.830;24.390;2023-05-07T15:27:49;3.70;;;2.10;;
32242;SDS011;18731;42.830;24.390;2023-05-07T15:30:15;4.47;;;1.77;;
32242;SDS011;18731;42.830;24.390;2023-05-07T15:32:41;4.65;;;2.78;;
32242;SDS011;18731;42.830;24.390;2023-05-07T15:35:07;4.15;;;1.90;;
32242;SDS011;18731;42.830;24.390;2023-05-07T15:37:34;9.02;;;2.20;;
32242;SDS011;18731;42.830;24.390;2023-05-07T15:40:00;5.63;;;2.33;;
32242;SDS011;18731;42.830;24.390;2023-05-07T15:42:28;3.78;;;2.67;;
32242;SDS011;18731;42.830;24.390;2023-05-07T15:45:03;5.80;;;2.25;;
32242;SDS011;18731;42.830;24.390;2023-05-07T15:47:31;4.47;;;2.40;;
32242;SDS011;18731;42.830;24.390;2023-05-07T15:49:59;4.68;;;1.80;;
32242;SDS011;18731;42.830;24.390;2023-05-07T15:52:24;7.00;;;2.15;;
32242;SDS011;18731;42.830;24.390;2023-05-07T15:54:50;3.75;;;2.33;;
32242;SDS011;18731;42.830;24.390;2023-05-07T15:57:16;5.47;;;2.22;;
32242;SDS011;18731;42.830;24.390;2023-05-07T15:59:41;4.93;;;2.33;;
32242;SDS011;18731;42.830;24.390;2023-05-07T16:02:07;8.27;;;2.10;;
32242;SDS011;18731;42.830;24.390;2023-05-07T16:04:33;3.08;;;2.13;;
32242;SDS011;18731;42.830;24.390;2023-05-07T16:06:58;6.38;;;2.20;;
32242;SDS011;18731;42.830;24.390;2023-05-07T16:09:24;4.07;;;2.28;;
32242;SDS011;18731;42.830;24.390;2023-05-07T16:11:51;2.50;;;2.03;;
32242;SDS011;18731;42.830;24.390;2023-05-07T16:14:16;8.63;;;2.30;;
32242;SDS011;18731;42.830;24.390;2023-05-07T16:16:42;4.28;;;2.40;;
32242;SDS011;18731;42.830;24.390;2023-05-07T16:19:08;8.65;;;2.40;;
32242;SDS011;18731;42.830;24.390;2023-05-07T16:21:33;7.00;;;2.83;;
32242;SDS011;18731;42.830;24.390;2023-05-07T16:24:00;3.67;;;2.50;;
32242;SDS011;18731;42.830;24.390;2023-05-07T16:26:26;7.70;;;2.40;;
32242;SDS011;18731;42.830;24.390;2023-05-07T16:28:52;4.85;;;2.22;;
32242;SDS011;18731;42.830;24.390;2023-05-07T16:31:18;7.20;;;2.78;;
32242;SDS011;18731;42.830;24.390;2023-05-07T16:33:44;4.95;;;2.22;;
32242;SDS011;18731;42.830;24.390;2023-05-07T16:36:10;4.97;;;2.47;;
32242;SDS011;18731;42.830;24.390;2023-05-07T16:38:35;4.13;;;2.38;;
32242;SDS011;18731;42.830;24.390;2023-05-07T16:41:02;6.80;;;2.92;;
32242;SDS011;18731;42.830;24.390;2023-05-07T16:43:30;5.15;;;2.17;;
32242;SDS011;18731;42.830;24.390;2023-05-07T16:45:56;3.20;;;2.50;;
32242;SDS011;18731;42.830;24.390;2023-05-07T16:48:21;8.15;;;2.63;;
32242;SDS011;18731;42.830;24.390;2023-05-07T16:50:47;3.17;;;2.35;;
32242;SDS011;18731;42.830;24.390;2023-05-07T16:53:13;5.57;;;2.67;;
32242;SDS011;18731;42.830;24.390;2023-05-07T16:55:39;4.80;;;2.47;;
32242;SDS011;18731;42.830;24.390;2023-05-07T16:58:06;5.30;;;2.72;;
32242;SDS011;18731;42.830;24.390;2023-05-07T17:00:32;5.88;;;2.42;;
32242;SDS011;18731;42.830;24.390;2023-05-07T17:02:59;4.20;;;2.80;;
32242;SDS011;18731;42.830;24.390;2023-05-07T17:05:27;11.00;;;2.55;;
32242;SDS011;18731;42.830;24.390;2023-05-07T17:07:52;8.32;;;2.50;;
32242;SDS011;18731;42.830;24.390;2023-05-07T17:10:19;7.55;;;2.55;;
32242;SDS011;18731;42.830;24.390;2023-05-07T17:12:45;12.15;;;2.60;;
32242;SDS011;18731;42.830;24.390;2023-05-07T17:15:11;8.75;;;3.38;;
32242;SDS011;18731;42.830;24.390;2023-05-07T17:17:37;7.90;;;3.20;;
32242;SDS011;18731;42.830;24.390;2023-05-07T17:20:03;6.70;;;2.90;;
32242;SDS011;18731;42.830;24.390;2023-05-07T17:22:30;8.82;;;3.00;;
32242;SDS011;18731;42.830;24.390;2023-05-07T17:24:56;14.32;;;3.85;;
32242;SDS011;18731;42.830;24.390;2023-05-07T17:27:22;10.63;;;2.92;;
32242;SDS011;18731;42.830;24.390;2023-05-07T17:29:48;20.65;;;3.90;;
32242;SDS011;18731;42.830;24.390;2023-05-07T17:32:14;18.67;;;4.50;;
32242;SDS011;18731;42.830;24.390;2023-05-07T17:34:40;11.15;;;3.13;;
32242;SDS011;18731;42.830;24.390;2023-05-07T17:37:05;10.35;;;4.60;;
32242;SDS011;18731;42.830;24.390;2023-05-07T17:39:31;9.25;;;4.07;;
32242;SDS011;18731;42.830;24.390;2023-05-07T17:41:57;13.32;;;4.57;;